sensor_id;sensor_type;location;lat;lon;timestamp;temperature;humidity
21891;DHT22;11110;52.386;16.940;2023-08-01T00:00:22;32.40;42.80
21891;DHT22;11110;52.386;16.940;2023-08-01T00:03:11;32.40;42.80
21891;DHT22;11110;52.386;16.940;2023-08-01T00:05:41;32.40;42.90
21891;DHT22;11110;52.386;16.940;2023-08-01T00:08:12;32.40;42.90
21891;DHT22;11110;52.386;16.940;2023-08-01T00:10:41;32.40;42.80
21891;DHT22;11110;52.386;16.940;2023-08-01T00:13:09;32.40;42.80
21891;DHT22;11110;52.386;16.940;2023-08-01T00:15:38;32.40;42.80
21891;DHT22;11110;52.386;16.940;2023-08-01T00:18:12;32.40;42.90
21891;DHT22;11110;52.386;16.940;2023-08-01T00:20:41;32.40;42.80
21891;DHT22;11110;52.386;16.940;2023-08-01T00:23:10;32.30;42.70
21891;DHT22;11110;52.386;16.940;2023-08-01T00:25:39;32.30;42.70
21891;DHT22;11110;52.386;16.940;2023-08-01T00:28:08;32.30;42.70
21891;DHT22;11110;52.386;16.940;2023-08-01T00:30:36;32.30;42.60
21891;DHT22;11110;52.386;16.940;2023-08-01T00:33:06;32.30;42.60
21891;DHT22;11110;52.386;16.940;2023-08-01T00:35:34;32.30;42.70
21891;DHT22;11110;52.386;16.940;2023-08-01T00:38:04;32.30;42.60
21891;DHT22;11110;52.386;16.940;2023-08-01T00:40:33;32.40;42.80
21891;DHT22;11110;52.386;16.940;2023-08-01T00:43:02;32.30;42.70
21891;DHT22;11110;52.386;16.940;2023-08-01T00:45:31;32.30;42.70
21891;DHT22;11110;52.386;16.940;2023-08-01T00:47:59;32.30;42.70
21891;DHT22;11110;52.386;16.940;2023-08-01T00:50:28;32.30;42.70
21891;DHT22;11110;52.386;16.940;2023-08-01T00:52:57;32.30;42.80
21891;DHT22;11110;52.386;16.940;2023-08-01T00:55:27;32.30;42.70
21891;DHT22;11110;52.386;16.940;2023-08-01T00:57:57;32.30;42.70
21891;DHT22;11110;52.386;16.940;2023-08-01T01:00:26;32.30;42.60
21891;DHT22;11110;52.386;16.940;2023-08-01T01:02:54;32.30;42.60
21891;DHT22;11110;52.386;16.940;2023-08-01T01:05:24;32.30;42.60
21891;DHT22;11110;52.386;16.940;2023-08-01T01:07:54;32.30;42.70
21891;DHT22;11110;52.386;16.940;2023-08-01T01:10:23;32.30;42.60
21891;DHT22;11110;52.386;16.940;2023-08-01T01:12:53;32.30;42.70
21891;DHT22;11110;52.386;16.940;2023-08-01T01:15:22;32.30;42.60
21891;DHT22;11110;52.386;16.940;2023-08-01T01:17:52;32.30;42.60
21891;DHT22;11110;52.386;16.940;2023-08-01T01:20:23;32.30;42.60
21891;DHT22;11110;52.386;16.940;2023-08-01T01:22:54;32.30;42.60
21891;DHT22;11110;52.386;16.940;2023-08-01T01:25:24;32.30;42.50
21891;DHT22;11110;52.386;16.940;2023-08-01T01:27:53;32.30;42.50
21891;DHT22;11110;52.386;16.940;2023-08-01T01:30:22;32.30;42.40
21891;DHT22;11110;52.386;16.940;2023-08-01T01:32:51;32.30;42.40
21891;DHT22;11110;52.386;16.940;2023-08-01T01:35:20;32.20;42.20
21891;DHT22;11110;52.386;16.940;2023-08-01T01:37:49;32.30;42.40
21891;DHT22;11110;52.386;16.940;2023-08-01T01:40:19;32.30;42.40
21891;DHT22;11110;52.386;16.940;2023-08-01T01:42:48;32.30;42.40
21891;DHT22;11110;52.386;16.940;2023-08-01T01:45:16;32.30;42.40
21891;DHT22;11110;52.386;16.940;2023-08-01T01:47:45;32.30;42.40
21891;DHT22;11110;52.386;16.940;2023-08-01T01:50:13;32.30;42.40
21891;DHT22;11110;52.386;16.940;2023-08-01T01:52:42;32.30;42.40
21891;DHT22;11110;52.386;16.940;2023-08-01T01:55:11;32.30;42.40
21891;DHT22;11110;52.386;16.940;2023-08-01T01:57:41;32.20;42.40
21891;DHT22;11110;52.386;16.940;2023-08-01T02:00:11;32.30;42.40
21891;DHT22;11110;52.386;16.940;2023-08-01T02:02:40;32.20;42.30
21891;DHT22;11110;52.386;16.940;2023-08-01T02:05:09;32.30;42.40
21891;DHT22;11110;52.386;16.940;2023-08-01T02:07:38;32.20;42.30
21891;DHT22;11110;52.386;16.940;2023-08-01T02:10:07;32.20;42.30
21891;DHT22;11110;52.386;16.940;2023-08-01T02:12:36;32.20;42.30
21891;DHT22;11110;52.386;16.940;2023-08-01T02:15:06;32.20;42.30
21891;DHT22;11110;52.386;16.940;2023-08-01T02:17:35;32.30;42.40
21891;DHT22;11110;52.386;16.940;2023-08-01T02:20:04;32.20;42.30
21891;DHT22;11110;52.386;16.940;2023-08-01T02:22:33;32.20;42.40
21891;DHT22;11110;52.386;16.940;2023-08-01T02:25:02;32.20;42.40
21891;DHT22;11110;52.386;16.940;2023-08-01T02:27:30;32.20;42.40
21891;DHT22;11110;52.386;16.940;2023-08-01T02:29:59;32.20;42.50
21891;DHT22;11110;52.386;16.940;2023-08-01T02:32:29;32.20;42.50
21891;DHT22;11110;52.386;16.940;2023-08-01T02:34:58;32.20;42.40
21891;DHT22;11110;52.386;16.940;2023-08-01T02:37:27;32.20;42.50
21891;DHT22;11110;52.386;16.940;2023-08-01T02:39:55;32.20;42.70
21891;DHT22;11110;52.386;16.940;2023-08-01T02:42:24;32.20;42.80
21891;DHT22;11110;52.386;16.940;2023-08-01T02:44:52;32.10;43.00
21891;DHT22;11110;52.386;16.940;2023-08-01T02:47:22;32.10;43.00
21891;DHT22;11110;52.386;16.940;2023-08-01T02:49:51;32.10;43.10
21891;DHT22;11110;52.386;16.940;2023-08-01T02:52:20;32.20;43.80
21891;DHT22;11110;52.386;16.940;2023-08-01T02:54:48;32.10;43.20
21891;DHT22;11110;52.386;16.940;2023-08-01T02:57:17;32.10;43.50
21891;DHT22;11110;52.386;16.940;2023-08-01T02:59:46;32.10;43.40
21891;DHT22;11110;52.386;16.940;2023-08-01T03:02:14;32.10;43.50
21891;DHT22;11110;52.386;16.940;2023-08-01T03:04:43;32.10;43.60
21891;DHT22;11110;52.386;16.940;2023-08-01T03:07:15;32.00;43.50
21891;DHT22;11110;52.386;16.940;2023-08-01T03:09:43;32.10;43.60
21891;DHT22;11110;52.386;16.940;2023-08-01T03:12:12;32.00;43.40
21891;DHT22;11110;52.386;16.940;2023-08-01T03:14:41;32.00;43.40
21891;DHT22;11110;52.386;16.940;2023-08-01T03:17:11;32.00;43.50
21891;DHT22;11110;52.386;16.940;2023-08-01T03:19:39;32.00;43.60
21891;DHT22;11110;52.386;16.940;2023-08-01T03:22:09;32.00;43.60
21891;DHT22;11110;52.386;16.940;2023-08-01T03:24:39;32.00;43.70
21891;DHT22;11110;52.386;16.940;2023-08-01T03:27:07;32.00;43.70
21891;DHT22;11110;52.386;16.940;2023-08-01T03:29:36;31.90;43.80
21891;DHT22;11110;52.386;16.940;2023-08-01T03:32:06;32.00;43.90
21891;DHT22;11110;52.386;16.940;2023-08-01T03:34:34;31.90;43.90
21891;DHT22;11110;52.386;16.940;2023-08-01T03:37:04;31.90;44.00
21891;DHT22;11110;52.386;16.940;2023-08-01T03:39:33;31.90;44.10
21891;DHT22;11110;52.386;16.940;2023-08-01T03:42:03;31.90;44.30
21891;DHT22;11110;52.386;16.940;2023-08-01T03:44:32;31.90;44.40
21891;DHT22;11110;52.386;16.940;2023-08-01T03:47:00;31.90;44.50
21891;DHT22;11110;52.386;16.940;2023-08-01T03:49:29;31.80;44.50
21891;DHT22;11110;52.386;16.940;2023-08-01T03:51:57;31.90;44.80
21891;DHT22;11110;52.386;16.940;2023-08-01T03:54:27;31.80;44.80
21891;DHT22;11110;52.386;16.940;2023-08-01T03:56:55;31.90;45.00
21891;DHT22;11110;52.386;16.940;2023-08-01T03:59:25;31.80;45.00
21891;DHT22;11110;52.386;16.940;2023-08-01T04:01:54;31.80;45.30
21891;DHT22;11110;52.386;16.940;2023-08-01T04:04:23;31.80;46.20
21891;DHT22;11110;52.386;16.940;2023-08-01T04:06:51;31.80;45.70
21891;DHT22;11110;52.386;16.940;2023-08-01T04:09:20;31.80;45.90
21891;DHT22;11110;52.386;16.940;2023-08-01T04:11:49;31.80;46.30
21891;DHT22;11110;52.386;16.940;2023-08-01T04:14:17;31.70;46.50
21891;DHT22;11110;52.386;16.940;2023-08-01T04:16:47;31.70;46.60
21891;DHT22;11110;52.386;16.940;2023-08-01T04:19:15;31.70;46.80
21891;DHT22;11110;52.386;16.940;2023-08-01T04:21:44;31.60;47.00
21891;DHT22;11110;52.386;16.940;2023-08-01T04:24:13;31.60;47.20
21891;DHT22;11110;52.386;16.940;2023-08-01T04:26:41;31.60;47.30
21891;DHT22;11110;52.386;16.940;2023-08-01T04:29:10;31.50;47.40
21891;DHT22;11110;52.386;16.940;2023-08-01T04:31:42;31.40;47.60
21891;DHT22;11110;52.386;16.940;2023-08-01T04:34:12;31.50;47.80
21891;DHT22;11110;52.386;16.940;2023-08-01T04:36:41;31.50;47.90
21891;DHT22;11110;52.386;16.940;2023-08-01T04:39:09;31.40;48.00
21891;DHT22;11110;52.386;16.940;2023-08-01T04:41:38;31.40;48.10
21891;DHT22;11110;52.386;16.940;2023-08-01T04:44:06;31.40;48.20
21891;DHT22;11110;52.386;16.940;2023-08-01T04:46:35;31.40;48.40
21891;DHT22;11110;52.386;16.940;2023-08-01T04:49:03;31.30;48.40
21891;DHT22;11110;52.386;16.940;2023-08-01T04:51:33;31.30;48.70
21891;DHT22;11110;52.386;16.940;2023-08-01T04:54:01;31.30;48.80
21891;DHT22;11110;52.386;16.940;2023-08-01T04:56:30;31.20;48.80
21891;DHT22;11110;52.386;16.940;2023-08-01T04:58:59;31.20;49.60
21891;DHT22;11110;52.386;16.940;2023-08-01T05:01:29;31.20;49.00
21891;DHT22;11110;52.386;16.940;2023-08-01T05:03:57;31.20;49.00
21891;DHT22;11110;52.386;16.940;2023-08-01T05:06:26;31.20;49.10
21891;DHT22;11110;52.386;16.940;2023-08-01T05:08:56;31.20;49.30
21891;DHT22;11110;52.386;16.940;2023-08-01T05:11:25;31.20;49.20
21891;DHT22;11110;52.386;16.940;2023-08-01T05:13:53;31.20;49.30
21891;DHT22;11110;52.386;16.940;2023-08-01T05:16:21;31.20;49.50
21891;DHT22;11110;52.386;16.940;2023-08-01T05:18:50;31.20;49.50
21891;DHT22;11110;52.386;16.940;2023-08-01T05:21:18;31.10;49.50
21891;DHT22;11110;52.386;16.940;2023-08-01T05:23:47;31.10;49.50
21891;DHT22;11110;52.386;16.940;2023-08-01T05:26:16;31.10;49.60
21891;DHT22;11110;52.386;16.940;2023-08-01T05:28:45;31.20;49.70
21891;DHT22;11110;52.386;16.940;2023-08-01T05:31:14;31.20;49.80
21891;DHT22;11110;52.386;16.940;2023-08-01T05:33:42;31.10;49.80
21891;DHT22;11110;52.386;16.940;2023-08-01T05:36:10;31.10;49.80
21891;DHT22;11110;52.386;16.940;2023-08-01T05:38:39;31.10;50.50
21891;DHT22;11110;52.386;16.940;2023-08-01T05:41:07;31.00;49.70
21891;DHT22;11110;52.386;16.940;2023-08-01T05:43:37;31.10;49.70
21891;DHT22;11110;52.386;16.940;2023-08-01T05:46:06;31.10;49.70
21891;DHT22;11110;52.386;16.940;2023-08-01T05:48:34;31.10;49.90
21891;DHT22;11110;52.386;16.940;2023-08-01T05:51:03;31.10;50.00
21891;DHT22;11110;52.386;16.940;2023-08-01T05:53:31;31.00;50.00
21891;DHT22;11110;52.386;16.940;2023-08-01T05:56:00;31.00;50.00
21891;DHT22;11110;52.386;16.940;2023-08-01T05:58:28;31.00;50.00
21891;DHT22;11110;52.386;16.940;2023-08-01T06:00:58;31.10;50.00
21891;DHT22;11110;52.386;16.940;2023-08-01T06:03:27;31.10;50.00
21891;DHT22;11110;52.386;16.940;2023-08-01T06:05:56;31.00;50.00
21891;DHT22;11110;52.386;16.940;2023-08-01T06:08:24;31.00;49.90
21891;DHT22;11110;52.386;16.940;2023-08-01T06:10:53;31.00;50.10
21891;DHT22;11110;52.386;16.940;2023-08-01T06:13:22;31.00;50.20
21891;DHT22;11110;52.386;16.940;2023-08-01T06:15:50;31.10;50.30
21891;DHT22;11110;52.386;16.940;2023-08-01T06:18:22;31.10;50.10
21891;DHT22;11110;52.386;16.940;2023-08-01T06:20:50;31.00;50.10
21891;DHT22;11110;52.386;16.940;2023-08-01T06:23:19;31.00;50.20
21891;DHT22;11110;52.386;16.940;2023-08-01T06:25:47;31.10;50.40
21891;DHT22;11110;52.386;16.940;2023-08-01T06:28:16;31.10;50.20
21891;DHT22;11110;52.386;16.940;2023-08-01T06:30:44;31.10;50.30
21891;DHT22;11110;52.386;16.940;2023-08-01T06:33:13;31.10;50.20
21891;DHT22;11110;52.386;16.940;2023-08-01T06:35:43;31.10;50.00
21891;DHT22;11110;52.386;16.940;2023-08-01T06:38:11;31.10;49.90
21891;DHT22;11110;52.386;16.940;2023-08-01T06:40:40;31.10;50.00
21891;DHT22;11110;52.386;16.940;2023-08-01T06:43:08;31.10;50.10
21891;DHT22;11110;52.386;16.940;2023-08-01T06:45:37;31.10;50.10
21891;DHT22;11110;52.386;16.940;2023-08-01T06:48:05;31.20;50.20
21891;DHT22;11110;52.386;16.940;2023-08-01T06:50:35;31.10;50.00
21891;DHT22;11110;52.386;16.940;2023-08-01T06:53:05;31.10;50.00
21891;DHT22;11110;52.386;16.940;2023-08-01T06:55:35;31.10;50.00
21891;DHT22;11110;52.386;16.940;2023-08-01T06:58:04;31.10;50.10
21891;DHT22;11110;52.386;16.940;2023-08-01T07:00:33;31.20;50.10
21891;DHT22;11110;52.386;16.940;2023-08-01T07:03:02;31.10;50.10
21891;DHT22;11110;52.386;16.940;2023-08-01T07:05:31;31.10;50.30
21891;DHT22;11110;52.386;16.940;2023-08-01T07:07:59;31.10;50.20
21891;DHT22;11110;52.386;16.940;2023-08-01T07:10:29;31.20;50.30
21891;DHT22;11110;52.386;16.940;2023-08-01T07:12:58;31.20;50.30
21891;DHT22;11110;52.386;16.940;2023-08-01T07:15:26;31.20;50.50
21891;DHT22;11110;52.386;16.940;2023-08-01T07:17:55;31.20;50.50
21891;DHT22;11110;52.386;16.940;2023-08-01T07:20:24;31.20;50.30
21891;DHT22;11110;52.386;16.940;2023-08-01T07:22:52;31.20;50.10
21891;DHT22;11110;52.386;16.940;2023-08-01T07:25:21;31.20;49.90
21891;DHT22;11110;52.386;16.940;2023-08-01T07:27:51;31.30;50.00
21891;DHT22;11110;52.386;16.940;2023-08-01T07:30:20;31.30;50.60
21891;DHT22;11110;52.386;16.940;2023-08-01T07:32:48;31.30;50.00
21891;DHT22;11110;52.386;16.940;2023-08-01T07:35:17;31.30;50.00
21891;DHT22;11110;52.386;16.940;2023-08-01T07:37:45;31.30;49.90
21891;DHT22;11110;52.386;16.940;2023-08-01T07:40:14;31.40;50.00
21891;DHT22;11110;52.386;16.940;2023-08-01T07:42:42;31.30;50.30
21891;DHT22;11110;52.386;16.940;2023-08-01T07:45:13;31.40;50.40
21891;DHT22;11110;52.386;16.940;2023-08-01T07:47:41;31.40;50.40
21891;DHT22;11110;52.386;16.940;2023-08-01T07:50:10;31.40;50.30
21891;DHT22;11110;52.386;16.940;2023-08-01T07:52:38;31.40;50.10
21891;DHT22;11110;52.386;16.940;2023-08-01T07:55:07;31.50;49.90
21891;DHT22;11110;52.386;16.940;2023-08-01T07:57:36;31.50;49.90
21891;DHT22;11110;52.386;16.940;2023-08-01T08:00:06;31.50;49.80
21891;DHT22;11110;52.386;16.940;2023-08-01T08:02:41;31.60;49.90
21891;DHT22;11110;52.386;16.940;2023-08-01T08:05:10;31.50;49.70
21891;DHT22;11110;52.386;16.940;2023-08-01T08:07:39;31.60;49.70
21891;DHT22;11110;52.386;16.940;2023-08-01T08:10:08;31.60;49.50
21891;DHT22;11110;52.386;16.940;2023-08-01T08:12:36;31.60;49.50
21891;DHT22;11110;52.386;16.940;2023-08-01T08:15:06;31.60;49.40
21891;DHT22;11110;52.386;16.940;2023-08-01T08:17:34;31.60;49.50
21891;DHT22;11110;52.386;16.940;2023-08-01T08:20:06;31.60;49.50
21891;DHT22;11110;52.386;16.940;2023-08-01T08:22:34;31.70;49.50
21891;DHT22;11110;52.386;16.940;2023-08-01T08:25:03;31.70;49.40
21891;DHT22;11110;52.386;16.940;2023-08-01T08:27:32;31.70;49.50
21891;DHT22;11110;52.386;16.940;2023-08-01T08:30:00;31.80;49.40
21891;DHT22;11110;52.386;16.940;2023-08-01T08:32:29;31.80;49.50
21891;DHT22;11110;52.386;16.940;2023-08-01T08:34:58;31.80;49.50
21891;DHT22;11110;52.386;16.940;2023-08-01T08:37:27;31.80;49.20
21891;DHT22;11110;52.386;16.940;2023-08-01T08:39:56;31.80;49.20
21891;DHT22;11110;52.386;16.940;2023-08-01T08:42:24;31.80;49.10
21891;DHT22;11110;52.386;16.940;2023-08-01T08:44:55;31.80;49.10
21891;DHT22;11110;52.386;16.940;2023-08-01T08:47:25;31.80;49.10
21891;DHT22;11110;52.386;16.940;2023-08-01T08:49:56;31.80;49.10
21891;DHT22;11110;52.386;16.940;2023-08-01T08:52:26;31.80;49.10
21891;DHT22;11110;52.386;16.940;2023-08-01T08:54:56;31.90;49.30
21891;DHT22;11110;52.386;16.940;2023-08-01T08:57:25;31.90;49.30
21891;DHT22;11110;52.386;16.940;2023-08-01T08:59:54;31.90;49.30
21891;DHT22;11110;52.386;16.940;2023-08-01T09:02:23;31.90;49.60
21891;DHT22;11110;52.386;16.940;2023-08-01T09:04:53;31.90;49.20
21891;DHT22;11110;52.386;16.940;2023-08-01T09:07:24;31.80;49.10
21891;DHT22;11110;52.386;16.940;2023-08-01T09:09:58;31.90;49.20
21891;DHT22;11110;52.386;16.940;2023-08-01T09:12:27;31.90;48.90
21891;DHT22;11110;52.386;16.940;2023-08-01T09:14:57;31.90;48.80
21891;DHT22;11110;52.386;16.940;2023-08-01T09:17:26;31.80;48.80
21891;DHT22;11110;52.386;16.940;2023-08-01T09:19:55;31.80;48.70
21891;DHT22;11110;52.386;16.940;2023-08-01T09:22:24;31.80;48.70
21891;DHT22;11110;52.386;16.940;2023-08-01T09:24:53;31.80;48.70
21891;DHT22;11110;52.386;16.940;2023-08-01T09:27:23;31.80;48.70
21891;DHT22;11110;52.386;16.940;2023-08-01T09:29:51;31.80;48.80
21891;DHT22;11110;52.386;16.940;2023-08-01T09:32:20;31.80;48.90
21891;DHT22;11110;52.386;16.940;2023-08-01T09:34:58;31.80;48.90
21891;DHT22;11110;52.386;16.940;2023-08-01T09:37:36;31.90;49.10
21891;DHT22;11110;52.386;16.940;2023-08-01T09:40:08;31.80;49.60
21891;DHT22;11110;52.386;16.940;2023-08-01T09:42:42;31.70;50.00
21891;DHT22;11110;52.386;16.940;2023-08-01T09:45:14;31.70;50.30
21891;DHT22;11110;52.386;16.940;2023-08-01T09:47:44;31.70;50.70
21891;DHT22;11110;52.386;16.940;2023-08-01T09:50:21;31.70;51.00
21891;DHT22;11110;52.386;16.940;2023-08-01T09:52:50;31.60;50.80
21891;DHT22;11110;52.386;16.940;2023-08-01T09:55:25;31.60;51.00
21891;DHT22;11110;52.386;16.940;2023-08-01T09:57:57;31.60;51.10
21891;DHT22;11110;52.386;16.940;2023-08-01T10:00:27;31.60;51.00
21891;DHT22;11110;52.386;16.940;2023-08-01T10:02:57;31.50;51.20
21891;DHT22;11110;52.386;16.940;2023-08-01T10:05:30;31.50;51.30
21891;DHT22;11110;52.386;16.940;2023-08-01T10:07:59;31.60;51.50
21891;DHT22;11110;52.386;16.940;2023-08-01T10:10:29;31.50;51.50
21891;DHT22;11110;52.386;16.940;2023-08-01T10:13:01;31.50;51.50
21891;DHT22;11110;52.386;16.940;2023-08-01T10:15:30;31.50;51.70
21891;DHT22;11110;52.386;16.940;2023-08-01T10:17:59;31.40;51.60
21891;DHT22;11110;52.386;16.940;2023-08-01T10:20:28;31.40;51.70
21891;DHT22;11110;52.386;16.940;2023-08-01T10:22:58;31.40;51.80
21891;DHT22;11110;52.386;16.940;2023-08-01T10:25:29;31.40;51.80
21891;DHT22;11110;52.386;16.940;2023-08-01T10:28:01;31.40;51.90
21891;DHT22;11110;52.386;16.940;2023-08-01T10:30:31;31.40;52.00
21891;DHT22;11110;52.386;16.940;2023-08-01T10:33:00;31.40;51.90
21891;DHT22;11110;52.386;16.940;2023-08-01T10:35:35;31.50;52.00
21891;DHT22;11110;52.386;16.940;2023-08-01T10:38:05;31.50;52.00
21891;DHT22;11110;52.386;16.940;2023-08-01T10:40:38;31.40;52.00
21891;DHT22;11110;52.386;16.940;2023-08-01T10:43:19;31.50;52.10
21891;DHT22;11110;52.386;16.940;2023-08-01T10:45:59;31.50;52.00
21891;DHT22;11110;52.386;16.940;2023-08-01T10:48:27;31.50;52.40
21891;DHT22;11110;52.386;16.940;2023-08-01T10:50:56;31.50;52.30
21891;DHT22;11110;52.386;16.940;2023-08-01T10:53:25;31.50;52.20
21891;DHT22;11110;52.386;16.940;2023-08-01T10:55:53;31.40;52.00
21891;DHT22;11110;52.386;16.940;2023-08-01T10:58:28;31.50;52.30
21891;DHT22;11110;52.386;16.940;2023-08-01T11:00:58;31.60;52.50
21891;DHT22;11110;52.386;16.940;2023-08-01T11:03:34;31.50;52.50
21891;DHT22;11110;52.386;16.940;2023-08-01T11:06:03;31.60;52.80
21891;DHT22;11110;52.386;16.940;2023-08-01T11:08:36;31.60;52.80
21891;DHT22;11110;52.386;16.940;2023-08-01T11:11:06;31.60;52.60
21891;DHT22;11110;52.386;16.940;2023-08-01T11:13:36;31.60;52.60
21891;DHT22;11110;52.386;16.940;2023-08-01T11:16:05;31.60;52.40
21891;DHT22;11110;52.386;16.940;2023-08-01T11:18:41;31.70;52.50
21891;DHT22;11110;52.386;16.940;2023-08-01T11:21:10;31.80;52.60
21891;DHT22;11110;52.386;16.940;2023-08-01T11:23:39;31.70;52.90
21891;DHT22;11110;52.386;16.940;2023-08-01T11:26:08;31.70;52.50
21891;DHT22;11110;52.386;16.940;2023-08-01T11:28:38;31.70;52.30
21891;DHT22;11110;52.386;16.940;2023-08-01T11:31:13;31.70;52.10
21891;DHT22;11110;52.386;16.940;2023-08-01T11:33:41;31.80;52.20
21891;DHT22;11110;52.386;16.940;2023-08-01T11:36:10;31.70;52.50
21891;DHT22;11110;52.386;16.940;2023-08-01T11:38:39;31.80;52.80
21891;DHT22;11110;52.386;16.940;2023-08-01T11:41:07;31.80;53.20
21891;DHT22;11110;52.386;16.940;2023-08-01T11:43:41;31.70;53.50
21891;DHT22;11110;52.386;16.940;2023-08-01T11:46:10;31.60;53.40
21891;DHT22;11110;52.386;16.940;2023-08-01T11:48:39;31.70;53.60
21891;DHT22;11110;52.386;16.940;2023-08-01T11:51:12;31.60;53.40
21891;DHT22;11110;52.386;16.940;2023-08-01T11:53:41;31.60;53.40
21891;DHT22;11110;52.386;16.940;2023-08-01T11:56:19;31.50;52.10
21891;DHT22;11110;52.386;16.940;2023-08-01T11:58:49;31.50;51.60
21891;DHT22;11110;52.386;16.940;2023-08-01T12:01:18;31.30;51.30
21891;DHT22;11110;52.386;16.940;2023-08-01T12:03:48;31.10;51.40
21891;DHT22;11110;52.386;16.940;2023-08-01T12:06:19;31.10;51.40
21891;DHT22;11110;52.386;16.940;2023-08-01T12:08:51;31.00;51.50
21891;DHT22;11110;52.386;16.940;2023-08-01T12:11:22;31.00;51.80
21891;DHT22;11110;52.386;16.940;2023-08-01T12:14:02;31.00;52.00
21891;DHT22;11110;52.386;16.940;2023-08-01T12:16:31;31.00;52.00
21891;DHT22;11110;52.386;16.940;2023-08-01T12:19:00;30.90;52.00
21891;DHT22;11110;52.386;16.940;2023-08-01T12:21:28;30.90;52.00
21891;DHT22;11110;52.386;16.940;2023-08-01T12:23:57;31.00;52.20
21891;DHT22;11110;52.386;16.940;2023-08-01T12:26:26;30.90;52.00
21891;DHT22;11110;52.386;16.940;2023-08-01T12:28:55;30.90;52.20
21891;DHT22;11110;52.386;16.940;2023-08-01T12:31:25;30.90;52.30
21891;DHT22;11110;52.386;16.940;2023-08-01T12:33:53;30.90;52.60
21891;DHT22;11110;52.386;16.940;2023-08-01T12:36:22;30.90;52.50
21891;DHT22;11110;52.386;16.940;2023-08-01T12:38:50;31.00;52.70
21891;DHT22;11110;52.386;16.940;2023-08-01T12:41:19;31.10;53.10
21891;DHT22;11110;52.386;16.940;2023-08-01T12:43:47;31.10;53.30
21891;DHT22;11110;52.386;16.940;2023-08-01T12:46:16;31.20;53.60
21891;DHT22;11110;52.386;16.940;2023-08-01T12:48:46;31.20;53.80
21891;DHT22;11110;52.386;16.940;2023-08-01T12:51:15;31.40;54.30
21891;DHT22;11110;52.386;16.940;2023-08-01T12:53:43;31.40;54.10
21891;DHT22;11110;52.386;16.940;2023-08-01T12:56:14;31.50;53.90
21891;DHT22;11110;52.386;16.940;2023-08-01T12:58:42;31.60;54.30
21891;DHT22;11110;52.386;16.940;2023-08-01T13:01:11;31.60;53.70
21891;DHT22;11110;52.386;16.940;2023-08-01T13:03:39;31.70;53.00
21891;DHT22;11110;52.386;16.940;2023-08-01T13:06:11;31.80;52.80
21891;DHT22;11110;52.386;16.940;2023-08-01T13:08:40;31.90;52.90
21891;DHT22;11110;52.386;16.940;2023-08-01T13:11:13;32.00;53.00
21891;DHT22;11110;52.386;16.940;2023-08-01T13:13:41;32.10;52.50
21891;DHT22;11110;52.386;16.940;2023-08-01T13:16:10;32.20;52.20
21891;DHT22;11110;52.386;16.940;2023-08-01T13:18:40;32.30;52.30
21891;DHT22;11110;52.386;16.940;2023-08-01T13:21:14;32.40;51.30
21891;DHT22;11110;52.386;16.940;2023-08-01T13:23:42;32.40;50.70
21891;DHT22;11110;52.386;16.940;2023-08-01T13:26:11;32.50;50.20
21891;DHT22;11110;52.386;16.940;2023-08-01T13:28:39;32.60;50.50
21891;DHT22;11110;52.386;16.940;2023-08-01T13:31:08;32.60;50.00
21891;DHT22;11110;52.386;16.940;2023-08-01T13:33:37;32.60;50.10
21891;DHT22;11110;52.386;16.940;2023-08-01T13:36:05;32.70;50.30
21891;DHT22;11110;52.386;16.940;2023-08-01T13:38:35;32.70;50.00
21891;DHT22;11110;52.386;16.940;2023-08-01T13:41:04;32.70;49.90
21891;DHT22;11110;52.386;16.940;2023-08-01T13:43:32;32.80;50.00
21891;DHT22;11110;52.386;16.940;2023-08-01T13:46:07;33.00;50.30
21891;DHT22;11110;52.386;16.940;2023-08-01T13:48:46;33.00;49.50
21891;DHT22;11110;52.386;16.940;2023-08-01T13:51:16;33.10;49.10
21891;DHT22;11110;52.386;16.940;2023-08-01T13:53:46;33.10;48.70
21891;DHT22;11110;52.386;16.940;2023-08-01T13:56:15;33.30;48.80
21891;DHT22;11110;52.386;16.940;2023-08-01T13:58:43;33.30;49.10
21891;DHT22;11110;52.386;16.940;2023-08-01T14:01:12;33.30;49.30
21891;DHT22;11110;52.386;16.940;2023-08-01T14:03:40;33.40;49.60
21891;DHT22;11110;52.386;16.940;2023-08-01T14:06:10;33.40;49.40
21891;DHT22;11110;52.386;16.940;2023-08-01T14:08:40;33.40;48.90
21891;DHT22;11110;52.386;16.940;2023-08-01T14:11:10;33.50;48.40
21891;DHT22;11110;52.386;16.940;2023-08-01T14:13:39;33.60;48.70
21891;DHT22;11110;52.386;16.940;2023-08-01T14:16:08;33.70;48.70
21891;DHT22;11110;52.386;16.940;2023-08-01T14:18:36;33.70;48.00
21891;DHT22;11110;52.386;16.940;2023-08-01T14:21:05;33.80;47.10
21891;DHT22;11110;52.386;16.940;2023-08-01T14:23:34;33.80;46.90
21891;DHT22;11110;52.386;16.940;2023-08-01T14:26:04;33.80;46.90
21891;DHT22;11110;52.386;16.940;2023-08-01T14:28:34;33.70;46.70
21891;DHT22;11110;52.386;16.940;2023-08-01T14:31:02;33.70;47.00
21891;DHT22;11110;52.386;16.940;2023-08-01T14:33:31;33.70;47.20
21891;DHT22;11110;52.386;16.940;2023-08-01T14:36:00;33.60;47.40
21891;DHT22;11110;52.386;16.940;2023-08-01T14:38:28;33.50;47.80
21891;DHT22;11110;52.386;16.940;2023-08-01T14:40:57;33.50;47.50
21891;DHT22;11110;52.386;16.940;2023-08-01T14:43:42;33.40;47.40
21891;DHT22;11110;52.386;16.940;2023-08-01T14:46:12;33.30;47.80
21891;DHT22;11110;52.386;16.940;2023-08-01T14:48:40;33.30;48.30
21891;DHT22;11110;52.386;16.940;2023-08-01T14:51:09;33.30;48.60
21891;DHT22;11110;52.386;16.940;2023-08-01T14:53:37;33.30;48.80
21891;DHT22;11110;52.386;16.940;2023-08-01T14:56:06;33.30;49.00
21891;DHT22;11110;52.386;16.940;2023-08-01T14:58:35;33.30;49.20
21891;DHT22;11110;52.386;16.940;2023-08-01T15:01:13;33.30;49.30
21891;DHT22;11110;52.386;16.940;2023-08-01T15:03:43;33.40;49.20
21891;DHT22;11110;52.386;16.940;2023-08-01T15:06:12;33.40;48.70
21891;DHT22;11110;52.386;16.940;2023-08-01T15:08:42;33.40;48.20
21891;DHT22;11110;52.386;16.940;2023-08-01T15:11:11;33.50;47.80
21891;DHT22;11110;52.386;16.940;2023-08-01T15:13:39;33.50;47.60
21891;DHT22;11110;52.386;16.940;2023-08-01T15:16:09;33.60;47.60
21891;DHT22;11110;52.386;16.940;2023-08-01T15:18:40;33.60;47.60
21891;DHT22;11110;52.386;16.940;2023-08-01T15:21:09;33.60;48.00
21891;DHT22;11110;52.386;16.940;2023-08-01T15:23:37;33.70;48.10
21891;DHT22;11110;52.386;16.940;2023-08-01T15:26:06;33.70;48.20
21891;DHT22;11110;52.386;16.940;2023-08-01T15:28:35;33.80;48.10